Station History

Weather Underground - logo

Station Historical Data
Daily Summary for October 12, 2018 Units:  English    Metric   Both
« Previous Day
Next Day »
Daily Weekly Monthly Yearly Custom
  High: Low: Average:
Temperature: 78.9 °F 50.9 °F 64.2 °F
Dew Point: 58.4 °F 48.4 °F 54.3 °F
Humidity: 91 % 45 % 73 %
Wind Speed: 3.5 mph 0 mph 0.5 mph
Wind Gust: 1.9 mph - -
Wind:- - WSW
Pressure: 29.90 in 29.75 in -
Precipitation: 0 in    
Historical Graphs
 
 
Tabular Data for October 12, 2018
Time Temperature Dew Point Pressure Wind Wind Speed Wind Gust Humidity Rainfall Rate (Hourly)
00:04 57.2 °F 53 °F 29.83 in Calm     86 % 0 in
00:09 57.1 °F 53 °F 29.83 in Calm     86 % 0 in
00:14 56.9 °F 52.8 °F 29.83 in Calm     86 % 0 in
00:19 56.8 °F 53 °F 29.83 in Calm     87 % 0 in
00:24 56.7 °F 52.9 °F 29.83 in Calm     87 % 0 in
00:29 56.6 °F 52.8 °F 29.83 in Calm     87 % 0 in
00:34 56.3 °F 52.2 °F 29.83 in Calm     86 % 0 in
00:39 55.9 °F 52.1 °F 29.83 in Calm     87 % 0 in
00:44 55.7 °F 51.9 °F 29.83 in Calm     87 % 0 in
00:49 55.7 °F 52.2 °F 29.83 in Calm     88 % 0 in
00:54 55.5 °F 52 °F 29.84 in Calm     88 % 0 in
00:59 55.5 °F 52.3 °F 29.84 in Calm     89 % 0 in
01:04 55.4 °F 52.2 °F 29.84 in Calm     89 % 0 in
01:09 55.2 °F 52 °F 29.84 in Calm     89 % 0 in
01:14 55 °F 51.8 °F 29.84 in Calm     89 % 0 in
01:19 54.9 °F 51.7 °F 29.84 in Calm     89 % 0 in
01:24 54.7 °F 51.5 °F 29.84 in Calm     89 % 0 in
01:29 54.7 °F 51.8 °F 29.84 in Calm     90 % 0 in
01:34 54.7 °F 51.8 °F 29.84 in Calm     90 % 0 in
01:39 54.6 °F 51.7 °F 29.84 in Calm     90 % 0 in
01:44 54.7 °F 51.8 °F 29.84 in Calm     90 % 0 in
01:49 54.8 °F 51.9 °F 29.84 in Calm     90 % 0 in
01:54 54.6 °F 51.4 °F 29.85 in Calm     89 % 0 in
01:59 54.5 °F 51.3 °F 29.85 in Calm     89 % 0 in
02:04 54.6 °F 51.4 °F 29.85 in Calm     89 % 0 in
02:09 54.6 °F 51.4 °F 29.85 in Calm     89 % 0 in
02:14 54.8 °F 51.9 °F 29.84 in Calm     90 % 0 in
02:19 54.7 °F 51.5 °F 29.84 in Calm     89 % 0 in
02:24 54.7 °F 51.8 °F 29.85 in Calm     90 % 0 in
02:29 54.6 °F 51.7 °F 29.85 in Calm     90 % 0 in
02:34 54.3 °F 51.1 °F 29.85 in Calm     89 % 0 in
02:39 54.2 °F 51.3 °F 29.84 in Calm     90 % 0 in
02:44 54.2 °F 51.3 °F 29.84 in Calm     90 % 0 in
02:49 54.2 °F 51.6 °F 29.84 in Calm     91 % 0 in
02:54 54.1 °F 51.2 °F 29.85 in Calm     90 % 0 in
02:59 54.1 °F 51.2 °F 29.84 in Calm     90 % 0 in
03:04 54.2 °F 51.6 °F 29.84 in Calm     91 % 0 in
03:09 54.2 °F 51.3 °F 29.85 in Calm     90 % 0 in
03:14 54.3 °F 51.7 °F 29.84 in Calm     91 % 0 in
03:19 54.5 °F 51.6 °F 29.85 in Calm     90 % 0 in
03:24 54.4 °F 51.5 °F 29.84 in Calm     90 % 0 in
03:29 54.2 °F 51.3 °F 29.84 in Calm     90 % 0 in
03:34 54.1 °F 51.2 °F 29.84 in Calm     90 % 0 in
03:39 53.9 °F 51 °F 29.84 in Calm     90 % 0 in
03:44 53.6 °F 50.7 °F 29.84 in Calm     90 % 0 in
03:49 53.4 °F 50.5 °F 29.84 in Calm     90 % 0 in
03:54 53.3 °F 50.4 °F 29.84 in Calm     90 % 0 in
03:59 53.2 °F 50.3 °F 29.84 in Calm     90 % 0 in
04:04 52.9 °F 50 °F 29.84 in Calm     90 % 0 in
04:09 52.8 °F 50.2 °F 29.84 in Calm     91 % 0 in
04:14 52.9 °F 50.3 °F 29.84 in Calm     91 % 0 in
04:19 52.8 °F 50.2 °F 29.84 in Calm     91 % 0 in
04:24 53 °F 50.4 °F 29.84 in Calm     91 % 0 in
04:29 53 °F 50.4 °F 29.84 in Calm     91 % 0 in
04:34 52.9 °F 50.3 °F 29.84 in Calm     91 % 0 in
04:39 52.9 °F 50.3 °F 29.84 in Calm     91 % 0 in
04:44 52.9 °F 50.3 °F 29.84 in Calm     91 % 0 in
04:49 52.9 °F 50.3 °F 29.84 in Calm     91 % 0 in
04:54 52.8 °F 50.2 °F 29.84 in Calm     91 % 0 in
04:59 52.8 °F 50.2 °F 29.85 in Calm     91 % 0 in
05:04 52.8 °F 49.9 °F 29.85 in Calm     90 % 0 in
05:09 52.8 °F 50.2 °F 29.85 in Calm     91 % 0 in
05:14 52.7 °F 49.8 °F 29.85 in Calm     90 % 0 in
05:19 52.4 °F 49.6 °F 29.85 in Calm     90 % 0 in
05:24 52.2 °F 49.4 °F 29.85 in Calm     90 % 0 in
05:29 52 °F 49.2 °F 29.85 in Calm     90 % 0 in
05:34 51.8 °F 49 °F 29.85 in Calm     90 % 0 in
05:39 51.7 °F 48.9 °F 29.85 in Calm     90 % 0 in
05:44 51.6 °F 48.8 °F 29.85 in Calm     90 % 0 in
05:49 51.5 °F 49 °F 29.85 in Calm     91 % 0 in
05:54 51.3 °F 48.8 °F 29.86 in Calm     91 % 0 in
05:59 51.4 °F 48.9 °F 29.86 in Calm     91 % 0 in
06:04 51.5 °F 49 °F 29.86 in Calm     91 % 0 in
06:09 51.5 °F 49 °F 29.86 in Calm     91 % 0 in
06:14 51.4 °F 48.9 °F 29.86 in Calm     91 % 0 in
06:19 51.6 °F 49.1 °F 29.86 in Calm     91 % 0 in
06:24 51.6 °F 49.1 °F 29.86 in Calm     91 % 0 in
06:29 51.4 °F 48.9 °F 29.86 in Calm     91 % 0 in
06:34 51.3 °F 48.8 °F 29.86 in Calm     91 % 0 in
06:39 51.2 °F 48.7 °F 29.86 in Calm     91 % 0 in
06:44 51.2 °F 48.7 °F 29.86 in Calm     91 % 0 in
06:49 51.1 °F 48.6 °F 29.87 in Calm     91 % 0 in
06:54 51 °F 48.5 °F 29.87 in Calm     91 % 0 in
06:59 50.9 °F 48.4 °F 29.87 in Calm     91 % 0 in
07:04 50.9 °F 48.4 °F 29.87 in Calm     91 % 0 in
07:09 50.9 °F 48.4 °F 29.87 in ESE 1.2 mph   91 % 0 in
07:14 51.1 °F 48.6 °F 29.88 in Calm     91 % 0 in
07:19 51.2 °F 48.7 °F 29.88 in Calm     91 % 0 in
07:24 51.3 °F 48.8 °F 29.88 in SE 1.2 mph   91 % 0 in
07:29 51.3 °F 48.8 °F 29.88 in Calm     91 % 0 in
07:34 51.4 °F 48.9 °F 29.88 in Calm     91 % 0 in
07:39 51.5 °F 49 °F 29.88 in Calm     91 % 0 in
07:44 51.8 °F 49.3 °F 29.88 in Calm     91 % 0 in
07:49 52.2 °F 49.7 °F 29.88 in SE 1.2 mph   91 % 0 in
07:54 52.5 °F 49.9 °F 29.88 in Calm     91 % 0 in
07:59 53.1 °F 50.5 °F 29.89 in Calm     91 % 0 in
08:04 53.6 °F 50.7 °F 29.89 in Calm     90 % 0 in
08:09 54.6 °F 51.4 °F 29.89 in Calm     89 % 0 in
08:14 56.1 °F 52.6 °F 29.89 in East 1 mph   88 % 0 in
08:19 57.4 °F 52.9 °F 29.89 in Calm     85 % 0 in
08:24 58.8 °F 53.6 °F 29.89 in Calm     83 % 0 in
08:29 59.8 °F 54 °F 29.89 in Calm     81 % 0 in
08:34 60.6 °F 54 °F 29.89 in Calm     79 % 0 in
08:39 61.4 °F 54.5 °F 29.89 in Calm     78 % 0 in
08:44 62.2 °F 54.5 °F 29.90 in Calm     76 % 0 in
08:49 62.8 °F 54.8 °F 29.90 in Calm     75 % 0 in
08:54 63 °F 54.6 °F 29.90 in Calm     74 % 0 in
08:59 62.9 °F 54.5 °F 29.90 in Calm     74 % 0 in
09:04 63.3 °F 54.9 °F 29.90 in Calm     74 % 0 in
09:09 63.9 °F 55.1 °F 29.90 in South 1.2 mph   73 % 0 in
09:14 64.2 °F 54.6 °F 29.90 in SSE 1.2 mph 0.6 mph 71 % 0 in
09:19 64.4 °F 54.8 °F 29.90 in South 2.3 mph 0.5 mph 71 % 0 in
09:24 64.9 °F 54.9 °F 29.90 in South 1.2 mph 0.4 mph 70 % 0 in
09:29 65 °F 55 °F 29.90 in ESE 3.5 mph   70 % 0 in
09:34 65.5 °F 55.5 °F 29.90 in SSE 1.2 mph 0.4 mph 70 % 0 in
09:39 66 °F 55.1 °F 29.90 in SSE 2.3 mph 0.6 mph 68 % 0 in
09:44 66.3 °F 55.8 °F 29.90 in SSE 2 mph 0.9 mph 69 % 0 in
09:49 66.6 °F 55.7 °F 29.90 in Calm   0.1 mph 68 % 0 in
09:54 67.2 °F 55.9 °F 29.89 in Calm   0.2 mph 67 % 0 in
09:59 67.5 °F 55.7 °F 29.90 in NNW 1.2 mph 0.8 mph 66 % 0 in
10:04 67.5 °F 56.2 °F 29.89 in SE 1 mph   67 % 0 in
10:09 68 °F 55.8 °F 29.89 in SSW 2.3 mph 1.8 mph 65 % 0 in
10:14 68.3 °F 56.1 °F 29.89 in SSE 2.3 mph 0.4 mph 65 % 0 in
10:19 68.9 °F 56.2 °F 29.89 in NNW 2.3 mph 0.1 mph 64 % 0 in
10:24 69.5 °F 57.2 °F 29.89 in Calm     65 % 0 in
10:29 70 °F 56.4 °F 29.89 in East 3.5 mph   62 % 0 in
10:34 69.8 °F 56.2 °F 29.89 in ESE 2.3 mph 1.1 mph 62 % 0 in
10:39 69.8 °F 56.6 °F 29.89 in South 2.3 mph 0.6 mph 63 % 0 in
10:44 70.5 °F 56.4 °F 29.88 in Calm     61 % 0 in
10:49 70.9 °F 56.8 °F 29.88 in Calm     61 % 0 in
10:54 71.3 °F 57.2 °F 29.88 in South 1 mph 0.9 mph 61 % 0 in
10:59 71.7 °F 56.6 °F 29.88 in NNW 1.2 mph   59 % 0 in
11:04 71.8 °F 57.2 °F 29.88 in Calm   0.3 mph 60 % 0 in
11:09 71.8 °F 56.7 °F 29.88 in SSE 1.2 mph 0.1 mph 59 % 0 in
11:14 72 °F 55.9 °F 29.88 in North 1.2 mph 0.8 mph 57 % 0 in
11:19 71.9 °F 57.3 °F 29.88 in SE 2.3 mph 0.1 mph 60 % 0 in
11:24 72.4 °F 56.8 °F 29.87 in SE 1.2 mph   58 % 0 in
11:29 72.6 °F 57 °F 29.87 in Calm     58 % 0 in
11:34 72.8 °F 57.6 °F 29.87 in NW 1.2 mph 0.7 mph 59 % 0 in
11:39 73.3 °F 56.7 °F 29.87 in NE 1.2 mph   56 % 0 in
11:44 73.6 °F 56.9 °F 29.86 in ESE 1.2 mph 0.2 mph 56 % 0 in
11:49 73.7 °F 56 °F 29.86 in Calm   0.2 mph 54 % 0 in
11:54 74 °F 57.3 °F 29.86 in North 1.2 mph 0.1 mph 56 % 0 in
11:59 73.9 °F 56.2 °F 29.86 in NNW 2.3 mph 0.4 mph 54 % 0 in
12:04 74.2 °F 57.5 °F 29.86 in SW 2.3 mph 0.2 mph 56 % 0 in
12:09 74.7 °F 56.4 °F 29.86 in South 2.3 mph   53 % 0 in
12:14 74.8 °F 56 °F 29.85 in NE 1.2 mph   52 % 0 in
12:19 74.9 °F 57.1 °F 29.85 in NNW 2.3 mph 0.1 mph 54 % 0 in
12:24 75 °F 56.2 °F 29.85 in WNW 1.2 mph   52 % 0 in
12:29 75.3 °F 57 °F 29.85 in East 1.2 mph 0.3 mph 53 % 0 in
12:34 75.7 °F 57.4 °F 29.84 in ESE 1.2 mph 0.4 mph 53 % 0 in
12:39 75.8 °F 56.9 °F 29.84 in South 2.3 mph 0.2 mph 52 % 0 in
12:44 76.1 °F 56.7 °F 29.84 in NNW 3.5 mph 0.4 mph 51 % 0 in
12:49 75.6 °F 56.2 °F 29.84 in NNW 1.2 mph 0.1 mph 51 % 0 in
12:54 75.7 °F 57.4 °F 29.83 in Calm   0.3 mph 53 % 0 in
12:59 76.1 °F 57.2 °F 29.83 in NNW 2.3 mph 0.1 mph 52 % 0 in
13:04 76.2 °F 56.2 °F 29.83 in Calm     50 % 0 in
13:09 76.1 °F 55.5 °F 29.83 in ESE 1.2 mph 0.2 mph 49 % 0 in
13:14 76.3 °F 56.3 °F 29.82 in WNW 2.3 mph 0.6 mph 50 % 0 in
13:19 76.7 °F 56.7 °F 29.82 in NW 2 mph 1.1 mph 50 % 0 in
13:24 76.5 °F 55.9 °F 29.82 in SE 1.2 mph 0.1 mph 49 % 0 in
13:29 76.8 °F 56.8 °F 29.82 in West 1.2 mph   50 % 0 in
13:34 76.9 °F 56.8 °F 29.81 in NW 1.2 mph   50 % 0 in
13:39 76.7 °F 55.5 °F 29.81 in NW 2.3 mph 0.8 mph 48 % 0 in
13:44 76.9 °F 55.7 °F 29.81 in NNW 1.2 mph 0.5 mph 48 % 0 in
13:49 77.1 °F 55.9 °F 29.80 in NW 1.2 mph 0.4 mph 48 % 0 in
13:54 77.1 °F 55.9 °F 29.80 in West 2.3 mph 0.1 mph 48 % 0 in
13:59 77 °F 54.6 °F 29.80 in ENE 1.2 mph 0.2 mph 46 % 0 in
14:04 76.8 °F 55.6 °F 29.80 in West 3.5 mph 1.8 mph 48 % 0 in
14:09 76.5 °F 55.3 °F 29.80 in NW 1.2 mph 0.2 mph 48 % 0 in
14:14 76.6 °F 54.9 °F 29.79 in WNW 1.2 mph 0.1 mph 47 % 0 in
14:19 76.9 °F 56.3 °F 29.79 in NW 2 mph 0.7 mph 49 % 0 in
14:24 76.8 °F 56.8 °F 29.79 in NW 1.2 mph 0.2 mph 50 % 0 in
14:29 76.9 °F 56.3 °F 29.79 in North 1.2 mph 0.1 mph 49 % 0 in
14:34 76.8 °F 56.2 °F 29.79 in Calm     49 % 0 in
14:39 76.7 °F 56.1 °F 29.78 in NW 2.3 mph 0.6 mph 49 % 0 in
14:44 76.4 °F 54.7 °F 29.78 in Calm     47 % 0 in
14:49 76.9 °F 55.7 °F 29.78 in Calm   0.1 mph 48 % 0 in
14:54 77.2 °F 56 °F 29.78 in North 1.2 mph   48 % 0 in
14:59 77.7 °F 56.4 °F 29.78 in Calm     48 % 0 in
15:04 77.8 °F 54.8 °F 29.78 in NNW 2.3 mph 0.2 mph 45 % 0 in
15:09 77.7 °F 55.9 °F 29.77 in Calm   0.2 mph 47 % 0 in
15:14 78.3 °F 55.8 °F 29.77 in Calm     46 % 0 in
15:19 78.4 °F 55.9 °F 29.77 in Calm     46 % 0 in
15:24 78.9 °F 57 °F 29.77 in Calm   0.5 mph 47 % 0 in
15:29 78.6 °F 57.3 °F 29.77 in WSW 1.2 mph 0.1 mph 48 % 0 in
15:34 78.7 °F 55.6 °F 29.77 in WNW 1.2 mph   45 % 0 in
15:39 78.3 °F 55.2 °F 29.77 in NW 1.2 mph 0.3 mph 45 % 0 in
15:44 78.1 °F 55.6 °F 29.77 in NW 2.3 mph 0.9 mph 46 % 0 in
15:49 77.8 °F 55.4 °F 29.77 in WNW 1 mph 0.3 mph 46 % 0 in
15:54 77.8 °F 54.8 °F 29.77 in NE 2 mph   45 % 0 in
15:59 77.7 °F 54.7 °F 29.76 in Calm     45 % 0 in
16:04 77.9 °F 54.8 °F 29.76 in NW 1.2 mph   45 % 0 in
16:09 78.1 °F 55.6 °F 29.77 in NE 1.2 mph 0.3 mph 46 % 0 in
16:14 77.8 °F 56 °F 29.76 in NW 1.2 mph   47 % 0 in
16:19 77.7 °F 55.9 °F 29.76 in West 1.2 mph 0.1 mph 47 % 0 in
16:24 77.6 °F 55.2 °F 29.76 in North 3 mph 0.8 mph 46 % 0 in
16:29 77.2 °F 55.4 °F 29.76 in NW 3.5 mph 1.9 mph 47 % 0 in
16:34 77 °F 55.8 °F 29.76 in WNW 2.3 mph 1.6 mph 48 % 0 in
16:39 76.8 °F 55 °F 29.76 in NW 2.3 mph 0.9 mph 47 % 0 in
16:44 76.5 °F 55.3 °F 29.76 in NW 1.2 mph 0.3 mph 48 % 0 in
16:49 76.4 °F 55.8 °F 29.76 in NNW 2.3 mph 1.1 mph 49 % 0 in
16:54 76.4 °F 56.4 °F 29.76 in NNW 1.2 mph 0.3 mph 50 % 0 in
16:59 76.4 °F 56.4 °F 29.76 in NW 2.3 mph 0.4 mph 50 % 0 in
17:04 76.3 °F 56.3 °F 29.76 in Calm     50 % 0 in
17:09 76.2 °F 56.2 °F 29.75 in NW 1.2 mph 0.1 mph 50 % 0 in
17:14 76.2 °F 56.7 °F 29.75 in Calm     51 % 0 in
17:19 76.3 °F 56.8 °F 29.76 in Calm     51 % 0 in
17:24 76.3 °F 56.3 °F 29.76 in Calm   0.3 mph 50 % 0 in
17:29 76.2 °F 56.2 °F 29.76 in Calm     50 % 0 in
17:34 76.1 °F 56.1 °F 29.76 in NW 1.2 mph   50 % 0 in
17:39 76 °F 56 °F 29.76 in NW 1.2 mph   50 % 0 in
17:44 75.9 °F 56.5 °F 29.76 in Calm     51 % 0 in
17:49 75.8 °F 55.8 °F 29.76 in NNW 1.2 mph 0.3 mph 50 % 0 in
17:54 75.6 °F 56.2 °F 29.76 in NNW 1 mph   51 % 0 in
17:59 75.4 °F 57.1 °F 29.76 in Calm     53 % 0 in
18:04 75 °F 56.7 °F 29.76 in Calm     53 % 0 in
18:09 74.6 °F 56.3 °F 29.76 in Calm     53 % 0 in
18:14 74.1 °F 56.9 °F 29.76 in Calm     55 % 0 in
18:19 73.5 °F 56.8 °F 29.76 in Calm     56 % 0 in
18:24 73 °F 56.9 °F 29.76 in Calm     57 % 0 in
18:29 72.5 °F 57.4 °F 29.77 in Calm     59 % 0 in
18:34 71.9 °F 57.3 °F 29.76 in Calm     60 % 0 in
18:39 71.2 °F 57.5 °F 29.76 in Calm     62 % 0 in
18:44 70.6 °F 57.4 °F 29.77 in Calm     63 % 0 in
18:49 70 °F 57.7 °F 29.77 in Calm     65 % 0 in
18:54 69.4 °F 57.5 °F 29.77 in Calm     66 % 0 in
18:59 69 °F 57.6 °F 29.77 in Calm     67 % 0 in
19:04 68.6 °F 58.4 °F 29.77 in Calm     70 % 0 in
19:09 68.2 °F 58 °F 29.77 in Calm     70 % 0 in
19:14 67.8 °F 58.4 °F 29.78 in Calm     72 % 0 in
19:19 67.5 °F 57.8 °F 29.78 in Calm     71 % 0 in
19:24 67.2 °F 57.9 °F 29.78 in Calm     72 % 0 in
19:29 66.9 °F 58 °F 29.78 in Calm     73 % 0 in
19:34 66.6 °F 57.7 °F 29.79 in Calm     73 % 0 in
19:39 66.4 °F 57.9 °F 29.79 in Calm     74 % 0 in
19:44 66.3 °F 58.1 °F 29.79 in Calm     75 % 0 in
19:49 66.1 °F 58.3 °F 29.79 in Calm     76 % 0 in
19:54 65.9 °F 57.7 °F 29.79 in Calm     75 % 0 in
19:59 65.6 °F 57.8 °F 29.80 in Calm     76 % 0 in
20:04 65.4 °F 57.3 °F 29.79 in Calm     75 % 0 in
20:09 65.1 °F 57.3 °F 29.80 in Calm     76 % 0 in
20:14 65 °F 58 °F 29.80 in Calm     78 % 0 in
20:19 64.9 °F 57.5 °F 29.80 in Calm     77 % 0 in
20:24 64.7 °F 57.7 °F 29.80 in Calm     78 % 0 in
20:29 64.5 °F 57.8 °F 29.80 in Calm     79 % 0 in
20:34 64.3 °F 57.6 °F 29.80 in Calm     79 % 0 in
20:39 64.1 °F 57.5 °F 29.80 in Calm     79 % 0 in
20:44 63.9 °F 57.3 °F 29.80 in Calm     79 % 0 in
20:49 63.7 °F 57.4 °F 29.80 in Calm     80 % 0 in
20:54 63.5 °F 57.2 °F 29.80 in Calm     80 % 0 in
20:59 63.4 °F 57.5 °F 29.80 in Calm     81 % 0 in
21:04 63.3 °F 57.4 °F 29.80 in Calm     81 % 0 in
21:09 63.2 °F 57.3 °F 29.80 in Calm     81 % 0 in
21:14 63.2 °F 57.3 °F 29.80 in Calm     81 % 0 in
21:19 63.3 °F 57.4 °F 29.80 in Calm     81 % 0 in
21:24 63.2 °F 57.3 °F 29.80 in Calm     81 % 0 in
21:29 62.9 °F 57 °F 29.80 in Calm     81 % 0 in
21:34 62.6 °F 56.7 °F 29.80 in Calm     81 % 0 in
21:39 62.4 °F 56.1 °F 29.80 in Calm     80 % 0 in
21:44 62.2 °F 56.3 °F 29.80 in Calm     81 % 0 in
21:49 62 °F 56.1 °F 29.80 in Calm     81 % 0 in
21:54 61.8 °F 56.2 °F 29.80 in Calm     82 % 0 in
21:59 61.7 °F 55.8 °F 29.80 in Calm     81 % 0 in
22:04 61.8 °F 56.2 °F 29.80 in Calm     82 % 0 in
22:09 61.7 °F 56.1 °F 29.80 in Calm     82 % 0 in
22:14 61.8 °F 56.2 °F 29.80 in Calm     82 % 0 in
22:19 61.7 °F 56.1 °F 29.80 in Calm     82 % 0 in
22:24 61.4 °F 55.9 °F 29.80 in Calm     82 % 0 in
22:29 61.2 °F 56 °F 29.80 in Calm     83 % 0 in
22:34 60.9 °F 55.7 °F 29.80 in Calm     83 % 0 in
22:39 60.7 °F 55.5 °F 29.80 in Calm     83 % 0 in
22:44 60.4 °F 55.5 °F 29.80 in Calm     84 % 0 in
22:49 60.1 °F 55.2 °F 29.80 in Calm     84 % 0 in
22:54 59.9 °F 55.4 °F 29.80 in Calm     85 % 0 in
22:59 59.7 °F 55.2 °F 29.80 in Calm     85 % 0 in
23:04 59.4 °F 54.9 °F 29.80 in Calm     85 % 0 in
23:09 59.3 °F 55.1 °F 29.80 in Calm     86 % 0 in
23:14 59.1 °F 54.9 °F 29.80 in Calm     86 % 0 in
23:19 58.9 °F 54.7 °F 29.80 in Calm     86 % 0 in
23:24 58.8 °F 54.9 °F 29.80 in Calm     87 % 0 in
23:29 58.7 °F 54.8 °F 29.80 in Calm     87 % 0 in
23:34 58.7 °F 54.8 °F 29.80 in Calm     87 % 0 in
23:39 58.6 °F 54.7 °F 29.80 in Calm     87 % 0 in
23:44 58.5 °F 54.6 °F 29.80 in Calm     87 % 0 in
23:49 58.3 °F 54.4 °F 29.80 in Calm     87 % 0 in
23:54 58.2 °F 54.3 °F 29.80 in NNW 1.2 mph   87 % 0 in
23:59 58 °F 54.2 °F 29.80 in Calm     87 % 0 in
Park Place, Exeter, Tulare County, California, USA
Compliments of Weather Underground - 2.75 mb